Terminal Aerodrome Forecast
Issued by NWS

Home | Current Version | Previous Version | Text Only | Print | Product List | Glossary On
Versions: 1 2 3 4 5 6 7 8 9 10 11 12 13 14 15 16 17 18 19 20 21 22 23 24 25 26 27 28
000
FTUS44 KOUN 222338
TAFLAW
TAF
KLAW 222338Z 2300/2324 12012KT P6SM OVC008
     FM230200 14010KT 4SM BR OVC004 PROB30 2309/2312 3SM -RA BR
     FM231200 16014KT 3SM RA BR OVC007
      TEMPO 2318/2322 2SM TSRA BR BKN007 OVC012CB=

USA.gov is the U.S. government's official web portal to all federal, state and local government web resources and services.